Airfield :







YOU CAN JOIN US ON...

 
LOGIN :

Register | Disclaimer

   EN    FR    IT 

 









Legend :    VFR   Marginal VFR   IFR   Intensive IFR   Very Intensive IFR
Visi :
Ceiling :
>= 8 km
>= 3000ft
5 to 8 km
1000 to 3000 ft
1500m to 5 km
500 to 1000 ft
800 to 1500m
200 to 500 ft
< 800m
< 200 ft
Symbols :   Thunderstorms  Fog  Heavy snow  Heavy precipitations  Wind > 20 kt







- Airport Elevation : 56 ft


KRKD - Knox County Regional

CURRENT METAR :
  • 170556Z AUTO 21003KT 10SM CLR 19/17 A2989 RMK AO2 SLP121 T01890167 10206 20189 58017

EXPIRED METARs :
  • 170456Z AUTO 25005KT 10SM CLR 20/17 A2991 RMK AO2 SLP127 T02000172 402610144
  • 170356Z AUTO 23005KT 10SM CLR 19/17 A2992 RMK AO2 SLP133 T01940172

TAF KRKD
Valid from the 17 at 06:00 until the 18 at 06:00 UTC


170520Z 1706/1806 21012KT P6SM FEW150
FM170900 22011KT 1SM BR BKN080
FM171100 22011KT P6SM BKN070
FM171500 24011KT P6SM BKN025
FM171800 24009KT 6SM -SHRA BKN025
FM180200 26008KT P6SM BKN045
KZBW FIR / North America



MET'MAP, your aeronautical weather chart ! - Copyright ORBIFLY December 2007 - Disclaimer

ORBIFLY MET'MAP TEAM :

Programming & Development : Alexandra Zaïnal
Concept & Development : Baudouin d'Aumeries
Co-Development & Prog : Marc-Olivier Méhu
Technical & hardware support : Manuel Goepfert

Contact : metmap@orbifly.com




SOURCES & CREDITS :

   NOAA